createdAt,value
2019-05-19T05:03:15.263Z,96838.75
2019-05-19T05:08:28.761Z,96836.41
2019-05-19T05:13:20.998Z,96843.78
2019-05-19T05:18:22.112Z,96837.34
2019-05-19T05:23:22.999Z,96843.92
2019-05-19T05:28:23.950Z,96843.97
2019-05-19T05:33:24.857Z,96837.98
2019-05-19T05:38:25.740Z,96847.02
2019-05-19T05:43:26.612Z,96842.02
2019-05-19T05:48:27.491Z,96833.61
2019-05-19T05:53:28.373Z,96846.22
2019-05-19T05:58:29.246Z,96838.94
2019-05-19T06:03:30.128Z,96848.73
2019-05-19T06:08:31.025Z,96840.34
2019-05-19T06:13:31.871Z,96842.98
2019-05-19T06:18:32.845Z,96843.81
2019-05-19T06:23:33.845Z,96849.06
2019-05-19T06:28:35.829Z,96846.08
2019-05-19T06:33:37.389Z,96849.39
2019-05-19T06:38:38.317Z,96856.62
2019-05-19T06:43:40.695Z,96855.03
2019-05-19T06:48:41.687Z,96852.05
2019-05-19T06:53:43.827Z,96855.23
2019-05-19T06:58:44.936Z,96842.87
2019-05-19T07:03:46.492Z,96841.68
2019-05-19T07:08:47.366Z,96833.13
2019-05-19T07:13:48.257Z,96836.94
2019-05-19T07:18:49.144Z,96825.52
2019-05-19T07:23:50.008Z,96831.09
2019-05-19T07:28:50.902Z,96821.20
2019-05-19T07:33:51.777Z,96821.28
2019-05-19T07:38:52.644Z,96820.67
2019-05-19T07:43:53.510Z,96824.66
2019-05-19T07:48:54.368Z,96819.67
2019-05-19T07:53:55.240Z,96817.91
2019-05-19T07:58:56.110Z,96816.13
2019-05-19T08:03:57.085Z,96815.27
2019-05-19T08:08:58.151Z,96820.45
2019-05-19T08:13:59.528Z,96825.80
2019-05-19T08:19:00.401Z,96822.61
2019-05-19T08:24:01.417Z,96814.90
2019-05-19T08:29:02.482Z,96810.47
2019-05-19T08:34:03.502Z,96803.38
2019-05-19T08:39:05.255Z,96810.74
2019-05-19T08:44:06.228Z,96806.17
2019-05-19T08:49:07.100Z,96797.84
2019-05-19T08:54:15.056Z,96806.36
2019-05-19T08:59:10.848Z,96787.65
2019-05-19T09:04:11.716Z,96779.63
2019-05-19T09:09:12.704Z,96785.84
2019-05-19T09:14:13.760Z,96785.09
2019-05-19T09:19:14.618Z,96793.95
2019-05-19T09:24:29.546Z,96789.63
2019-05-19T09:29:18.383Z,96788.20
2019-05-19T09:34:19.259Z,96783.38
2019-05-19T09:39:20.143Z,96783.61
2019-05-19T09:44:21.012Z,96782.20
2019-05-19T09:49:31.571Z,96777.77
2019-05-19T09:54:44.178Z,96777.39
2019-05-19T09:59:35.654Z,96760.36
2019-05-19T10:04:36.496Z,96770.92
2019-05-19T10:09:57.934Z,96763.52
2019-05-19T10:14:59.010Z,96766.92
2019-05-19T10:19:59.900Z,96754.75
2019-05-19T10:25:20.329Z,96754.72
2019-05-19T10:30:05.984Z,96742.64
2019-05-19T10:35:06.949Z,96741.38
2019-05-19T10:40:08.220Z,96728.59
2019-05-19T10:45:10.495Z,96734.75
2019-05-19T10:50:12.175Z,96735.08
2019-05-19T10:55:13.164Z,96734.66
2019-05-19T11:00:14.733Z,96731.77
2019-05-19T11:05:15.608Z,96728.92
2019-05-19T11:10:16.883Z,96712.64
2019-05-19T11:15:18.023Z,96708.26
2019-05-19T11:20:19.081Z,96707.59
2019-05-19T11:25:32.975Z,96701.48
2019-05-19T11:30:22.757Z,96697.59
2019-05-19T11:35:23.619Z,96692.09
2019-05-19T11:40:24.581Z,96687.19
2019-05-19T11:45:25.571Z,96684.58
2019-05-19T11:50:26.445Z,96660.08
2019-05-19T11:55:27.315Z,96674.05
2019-05-19T12:00:28.324Z,96661.20
2019-05-19T12:05:29.302Z,96665.59
2019-05-19T12:10:30.437Z,96662.50
2019-05-19T12:15:31.324Z,96657.41
2019-05-19T12:20:32.195Z,96654.69
2019-05-19T12:25:33.160Z,96659.61
2019-05-19T12:30:34.177Z,96658.80
2019-05-19T12:35:35.030Z,96660.43
2019-05-19T12:40:35.904Z,96657.19
2019-05-19T12:45:36.861Z,96657.41
2019-05-19T12:50:37.733Z,96651.44
2019-05-19T12:55:38.807Z,96646.02
2019-05-19T13:00:39.680Z,96639.77
2019-05-19T13:05:40.555Z,96636.92
2019-05-19T13:10:41.452Z,96624.80
2019-05-19T13:15:42.333Z,96630.16
2019-05-19T13:20:43.239Z,96626.98
2019-05-19T13:25:44.108Z,96629.82
2019-05-19T13:30:44.997Z,96623.00
2019-05-19T13:35:45.855Z,96626.17
2019-05-19T13:40:46.932Z,96621.16
2019-05-19T13:45:47.815Z,96610.44
2019-05-19T13:50:48.797Z,96563.96
2019-05-19T13:55:49.648Z,96605.80
2019-05-19T14:00:50.532Z,96612.22
2019-05-19T14:05:51.415Z,96614.12
2019-05-19T14:10:52.287Z,96599.66
2019-05-19T14:15:53.167Z,96603.88
2019-05-19T14:20:54.147Z,96606.75
2019-05-19T14:25:55.234Z,96608.80
2019-05-19T14:30:58.143Z,96598.61
2019-05-19T14:36:00.480Z,96607.45
2019-05-19T14:41:02.331Z,96605.04
2019-05-19T14:46:04.765Z,96608.41
2019-05-19T14:51:06.903Z,96613.88
2019-05-19T14:56:08.984Z,96612.44
2019-05-19T15:01:10.460Z,96608.22
2019-05-19T15:06:12.888Z,96612.97
2019-05-19T15:11:16.048Z,96606.01
2019-05-19T15:16:17.697Z,96607.13
2019-05-19T15:21:20.042Z,96599.56
2019-05-19T15:26:22.003Z,96598.02
2019-05-19T15:31:23.193Z,96593.29
2019-05-19T15:36:24.089Z,96592.81
2019-05-19T15:41:25.001Z,96582.48
2019-05-19T15:46:25.881Z,96583.48
2019-05-19T15:51:29.134Z,96581.73
2019-05-19T15:56:29.535Z,96583.33
2019-05-19T16:01:30.407Z,96582.72
2019-05-19T16:06:31.294Z,96578.95
2019-05-19T16:11:32.151Z,96569.00
2019-05-19T16:16:33.116Z,96570.72
2019-05-19T16:21:33.979Z,96575.02
2019-05-19T16:26:34.846Z,96562.76
2019-05-19T16:31:35.739Z,96566.78
2019-05-19T16:36:36.616Z,96561.48
2019-05-19T16:41:37.555Z,96564.91
2019-05-19T16:46:38.480Z,96571.02
2019-05-19T16:51:39.391Z,96561.61
2019-05-19T16:56:40.264Z,96555.15
2019-05-19T17:01:41.138Z,96557.88
2019-05-19T17:06:42.114Z,96561.31
2019-05-19T17:11:43.000Z,96556.56
2019-05-19T17:16:43.883Z,96556.19
2019-05-19T17:21:44.752Z,96557.23
2019-05-19T17:26:47.620Z,96564.13
2019-05-19T17:31:48.510Z,96562.98
2019-05-19T17:36:50.952Z,96557.64
2019-05-19T17:41:52.009Z,96561.12
2019-05-19T17:46:52.884Z,96563.70
2019-05-19T17:51:54.024Z,96566.69
2019-05-19T17:56:56.441Z,96563.44
2019-05-19T18:01:57.385Z,96557.85
2019-05-19T18:06:58.263Z,96568.51
2019-05-19T18:11:59.139Z,96561.63
2019-05-19T18:17:00.011Z,96557.63
2019-05-19T18:22:00.887Z,96558.41
2019-05-19T18:27:01.775Z,96560.62
2019-05-19T18:32:03.081Z,96565.46
2019-05-19T18:37:04.006Z,96561.66
2019-05-19T18:42:04.986Z,96563.47
2019-05-19T18:47:05.886Z,96571.27
2019-05-19T18:52:06.745Z,96570.95
2019-05-19T18:57:07.699Z,96566.25
2019-05-19T19:02:09.076Z,96562.93
2019-05-19T19:07:10.195Z,96562.12
2019-05-19T19:12:11.192Z,96569.34
2019-05-19T19:17:12.085Z,96567.28
2019-05-19T19:22:12.986Z,96575.83
2019-05-19T19:27:13.886Z,96579.10
2019-05-19T19:32:14.797Z,96578.95
2019-05-19T19:37:15.674Z,96578.54
2019-05-19T19:42:16.564Z,96573.48
2019-05-19T19:47:17.432Z,96571.89
2019-05-19T19:52:18.317Z,96570.56
2019-05-19T19:57:19.200Z,96567.22
2019-05-19T20:02:20.210Z,96560.45
2019-05-19T20:07:21.111Z,96561.11
2019-05-19T20:12:21.991Z,96556.53
2019-05-19T20:17:22.861Z,96551.47
